BAW7D EGLL-KLAX
Flight info
| Callsign | BAW7D |
|---|---|
| Flight time | N/A |
| Altitude | 34000 |
| Route | ULTIB T420 TNT UL28 RODOL UM65 TENSO L603 BELOX DCT MIMKU DCT AGORI/M084F340 DCT 58N020W 5930N03000W 6030N04000W 6030N05000W/M084F360 DCT PIDSO N950B MUSLO/N0497F360 N950B RODBO DCT TUNNI DCT LENUT DCT GOSEP DCT YER/N0491F380 DCT ZSJ DCT AXENO DCT DUVIS DCT KERBI DCT 49N099W DCT OGSIQ DCT DIK DCT WUVUT DCT DDY DCT CKW DCT WEEMN DCT SARAF DCT BAWER DCT PIIXR DCT ZZYZX Q88 HAKMN ANJLL4 |
| Aircraft | A388/J-SADE2E3FGHIJ3J4J5M1RWXY/LB1D1 |
Departure
| Time | N/A |
|---|---|
| Airport | London Heathrow Airport (EGLL) |
Arrival
| Time | 2026-04-20 21:26 |
|---|---|
| Airport | Los Angeles International Airport (KLAX) |
| Time | Latitude | Longitude | Altitude | Speed | Heading |
|---|---|---|---|---|---|
| 2026-04-20 20:59 | 34.98922 | -115.75093 | 39971 ft | 449 kts | 226° |
| 2026-04-20 20:59 | 34.94521 | -115.80699 | 39968 ft | 467 kts | 226° |
| 2026-04-20 21:00 | 34.90085 | -115.86342 | 39961 ft | 457 kts | 226° |
| 2026-04-20 21:00 | 34.85678 | -115.91937 | 39956 ft | 458 kts | 225° |
| 2026-04-20 21:01 | 34.81262 | -115.97534 | 39951 ft | 458 kts | 225° |
| 2026-04-20 21:01 | 34.79050 | -116.00336 | 39822 ft | 459 kts | 225° |
| 2026-04-20 21:01 | 34.76842 | -116.03130 | 39483 ft | 456 kts | 225° |
| 2026-04-20 21:02 | 34.74658 | -116.05907 | 38924 ft | 455 kts | 225° |
| 2026-04-20 21:02 | 34.72496 | -116.08667 | 38115 ft | 458 kts | 225° |
| 2026-04-20 21:02 | 34.70297 | -116.11470 | 37281 ft | 459 kts | 225° |
| 2026-04-20 21:02 | 34.68097 | -116.14271 | 36454 ft | 460 kts | 225° |
| 2026-04-20 21:03 | 34.65876 | -116.17095 | 35603 ft | 462 kts | 225° |
| 2026-04-20 21:03 | 34.63648 | -116.19925 | 34736 ft | 464 kts | 225° |
| 2026-04-20 21:03 | 34.61418 | -116.22755 | 33833 ft | 466 kts | 225° |
| 2026-04-20 21:03 | 34.59170 | -116.25606 | 32962 ft | 466 kts | 225° |
| 2026-04-20 21:04 | 34.56948 | -116.28422 | 32441 ft | 458 kts | 225° |
| 2026-04-20 21:04 | 34.54777 | -116.31209 | 32138 ft | 452 kts | 226° |
| 2026-04-20 21:04 | 34.52617 | -116.34004 | 31900 ft | 454 kts | 225° |
| 2026-04-20 21:04 | 34.50441 | -116.36786 | 31674 ft | 454 kts | 224° |
| 2026-04-20 21:05 | 34.48191 | -116.39508 | 31413 ft | 458 kts | 224° |
| 2026-04-20 21:05 | 34.45963 | -116.42242 | 31170 ft | 454 kts | 225° |
| 2026-04-20 21:05 | 34.43826 | -116.44971 | 30925 ft | 452 kts | 227° |
| 2026-04-20 21:05 | 34.41880 | -116.47968 | 30691 ft | 453 kts | 233° |
| 2026-04-20 21:06 | 34.40225 | -116.51210 | 30422 ft | 452 kts | 239° |
| 2026-04-20 21:06 | 34.38813 | -116.54616 | 29927 ft | 450 kts | 242° |
| 2026-04-20 21:06 | 34.37438 | -116.58004 | 29002 ft | 450 kts | 242° |
| 2026-04-20 21:06 | 34.36048 | -116.61392 | 28366 ft | 444 kts | 242° |
| 2026-04-20 21:07 | 34.34694 | -116.64682 | 28189 ft | 428 kts | 242° |
| 2026-04-20 21:07 | 34.33389 | -116.67848 | 28047 ft | 413 kts | 241° |
| 2026-04-20 21:07 | 34.32130 | -116.70931 | 27482 ft | 408 kts | 242° |
| 2026-04-20 21:07 | 34.30892 | -116.74016 | 26811 ft | 406 kts | 242° |
| 2026-04-20 21:08 | 34.29663 | -116.77086 | 26249 ft | 403 kts | 242° |
| 2026-04-20 21:08 | 34.28444 | -116.80128 | 25667 ft | 400 kts | 242° |
| 2026-04-20 21:08 | 34.27235 | -116.83137 | 25159 ft | 396 kts | 243° |
| 2026-04-20 21:08 | 34.26034 | -116.86116 | 24623 ft | 393 kts | 243° |
| 2026-04-20 21:09 | 34.24840 | -116.89072 | 24132 ft | 389 kts | 243° |
| 2026-04-20 21:09 | 34.23656 | -116.92002 | 23631 ft | 386 kts | 243° |
| 2026-04-20 21:09 | 34.22484 | -116.94904 | 23035 ft | 383 kts | 243° |
| 2026-04-20 21:09 | 34.21335 | -116.97784 | 22480 ft | 379 kts | 245° |
| 2026-04-20 21:10 | 34.20423 | -117.00759 | 21793 ft | 376 kts | 250° |
| 2026-04-20 21:10 | 34.19629 | -117.03756 | 21026 ft | 373 kts | 250° |
| 2026-04-20 21:10 | 34.18838 | -117.06714 | 20364 ft | 368 kts | 250° |
| 2026-04-20 21:10 | 34.18050 | -117.09635 | 19607 ft | 364 kts | 250° |
| 2026-04-20 21:11 | 34.17267 | -117.12524 | 19040 ft | 357 kts | 249° |
| 2026-04-20 21:11 | 34.16505 | -117.15335 | 18655 ft | 348 kts | 249° |
| 2026-04-20 21:11 | 34.16005 | -117.17172 | 18194 ft | 350 kts | 249° |
| 2026-04-20 21:11 | 34.14971 | -117.20924 | 17395 ft | 351 kts | 249° |
| 2026-04-20 21:12 | 34.14465 | -117.22759 | 17194 ft | 347 kts | 249° |
| 2026-04-20 21:12 | 34.13704 | -117.25522 | 16614 ft | 346 kts | 249° |
| 2026-04-20 21:12 | 34.12940 | -117.28291 | 15969 ft | 348 kts | 249° |
| 2026-04-20 21:12 | 34.12181 | -117.31045 | 15572 ft | 341 kts | 249° |
| 2026-04-20 21:13 | 34.11436 | -117.33746 | 15103 ft | 338 kts | 249° |
| 2026-04-20 21:13 | 34.10692 | -117.36436 | 14588 ft | 336 kts | 249° |
| 2026-04-20 21:13 | 34.09970 | -117.39102 | 14101 ft | 334 kts | 250° |
| 2026-04-20 21:13 | 34.09299 | -117.41782 | 13562 ft | 333 kts | 251° |
| 2026-04-20 21:14 | 34.08648 | -117.44449 | 13081 ft | 329 kts | 251° |
| 2026-04-20 21:14 | 34.08000 | -117.47090 | 12600 ft | 326 kts | 251° |
| 2026-04-20 21:14 | 34.07353 | -117.49700 | 12172 ft | 323 kts | 251° |
| 2026-04-20 21:14 | 34.06719 | -117.52230 | 11757 ft | 319 kts | 250° |
| 2026-04-20 21:15 | 34.05842 | -117.55661 | 11049 ft | 320 kts | 250° |
| 2026-04-20 21:15 | 34.05405 | -117.57356 | 10748 ft | 319 kts | 250° |
| 2026-04-20 21:15 | 34.04753 | -117.59896 | 10364 ft | 316 kts | 250° |
| 2026-04-20 21:15 | 34.04110 | -117.62412 | 10124 ft | 312 kts | 250° |
| 2026-04-20 21:16 | 34.03474 | -117.64901 | 9984 ft | 308 kts | 250° |
| 2026-04-20 21:16 | 34.02841 | -117.67372 | 9972 ft | 307 kts | 250° |
| 2026-04-20 21:16 | 34.02251 | -117.69790 | 9941 ft | 296 kts | 254° |
| 2026-04-20 21:16 | 34.01954 | -117.72211 | 9735 ft | 290 kts | 261° |
| 2026-04-20 21:17 | 34.01741 | -117.74619 | 9353 ft | 288 kts | 261° |
| 2026-04-20 21:17 | 34.01514 | -117.77012 | 9028 ft | 286 kts | 261° |
| 2026-04-20 21:17 | 34.01286 | -117.79386 | 8901 ft | 286 kts | 260° |
| 2026-04-20 21:17 | 34.01053 | -117.81768 | 8737 ft | 285 kts | 260° |
| 2026-04-20 21:18 | 34.00814 | -117.84121 | 8377 ft | 282 kts | 257° |
| 2026-04-20 21:18 | 34.00099 | -117.86279 | 8123 ft | 275 kts | 231° |
| 2026-04-20 21:18 | 33.98745 | -117.87782 | 8025 ft | 266 kts | 221° |
| 2026-04-20 21:18 | 33.97697 | -117.89665 | 7845 ft | 276 kts | 240° |
| 2026-04-20 21:19 | 33.97008 | -117.91877 | 7806 ft | 281 kts | 254° |
| 2026-04-20 21:19 | 33.96756 | -117.94186 | 7808 ft | 283 kts | 265° |
| 2026-04-20 21:19 | 33.96862 | -117.96553 | 7583 ft | 285 kts | 272° |
| 2026-04-20 21:20 | 33.97154 | -118.01270 | 6654 ft | 280 kts | 272° |
| 2026-04-20 21:20 | 33.97327 | -118.03560 | 6264 ft | 273 kts | 272° |
| 2026-04-20 21:20 | 33.97519 | -118.05829 | 5825 ft | 270 kts | 274° |
| 2026-04-20 21:20 | 33.97725 | -118.08064 | 5360 ft | 268 kts | 274° |
| 2026-04-20 21:21 | 33.97928 | -118.10279 | 4933 ft | 264 kts | 273° |
| 2026-04-20 21:21 | 33.97981 | -118.12478 | 4588 ft | 262 kts | 265° |
| 2026-04-20 21:21 | 33.97825 | -118.14627 | 4253 ft | 252 kts | 261° |
| 2026-04-20 21:21 | 33.97617 | -118.16542 | 3966 ft | 246 kts | 262° |
| 2026-04-20 21:22 | 33.97418 | -118.18560 | 3668 ft | 238 kts | 262° |
| 2026-04-20 21:22 | 33.97219 | -118.20485 | 3363 ft | 227 kts | 262° |
| 2026-04-20 21:22 | 33.97032 | -118.22349 | 3090 ft | 220 kts | 262° |
| 2026-04-20 21:22 | 33.96847 | -118.24142 | 2815 ft | 206 kts | 262° |
| 2026-04-20 21:23 | 33.96686 | -118.25749 | 2551 ft | 186 kts | 261° |
| 2026-04-20 21:23 | 33.96529 | -118.27252 | 2288 ft | 175 kts | 261° |
| 2026-04-20 21:23 | 33.96389 | -118.28654 | 2057 ft | 164 kts | 261° |
| 2026-04-20 21:23 | 33.96255 | -118.29968 | 1856 ft | 150 kts | 261° |
| 2026-04-20 21:24 | 33.96133 | -118.31168 | 1657 ft | 137 kts | 261° |
| 2026-04-20 21:24 | 33.96020 | -118.32270 | 1482 ft | 128 kts | 261° |
| 2026-04-20 21:24 | 33.95911 | -118.33315 | 1309 ft | 126 kts | 261° |
| 2026-04-20 21:24 | 33.95809 | -118.34352 | 1127 ft | 123 kts | 260° |
| 2026-04-20 21:25 | 33.95700 | -118.35386 | 977 ft | 127 kts | 261° |
| 2026-04-20 21:25 | 33.95599 | -118.36424 | 800 ft | 124 kts | 262° |
| 2026-04-20 21:25 | 33.95486 | -118.37464 | 631 ft | 125 kts | 262° |
| 2026-04-20 21:25 | 33.95374 | -118.38505 | 467 ft | 127 kts | 263° |
| 2026-04-20 21:26 | 33.95261 | -118.39543 | 295 ft | 123 kts | 265° |
| 2026-04-20 21:26 | 33.95170 | -118.40572 | 135 ft | 120 kts | 263° |
| 2026-04-20 21:26 | 33.95089 | -118.41391 | 127 ft | 78 kts | 263° |
| 2026-04-20 21:26 | 33.95036 | -118.41907 | 127 ft | 49 kts | 263° |
| 2026-04-20 21:27 | 33.95004 | -118.42237 | 126 ft | 28 kts | 263° |
| 2026-04-20 21:27 | 33.94977 | -118.42431 | 126 ft | 21 kts | 254° |
| 2026-04-20 21:27 | 33.94923 | -118.42576 | 129 ft | 18 kts | 236° |
| 2026-04-20 21:27 | 33.94848 | -118.42683 | 128 ft | 16 kts | 225° |
| 2026-04-20 21:28 | 33.94763 | -118.42759 | 127 ft | 15 kts | 203° |
| 2026-04-20 21:28 | 33.94687 | -118.42782 | 128 ft | 9 kts | 184° |
| 2026-04-20 21:28 | 33.94641 | -118.42763 | 127 ft | 7 kts | 126° |
| 2026-04-20 21:28 | 33.94632 | -118.42698 | 130 ft | 8 kts | 83° |
| 2026-04-20 21:29 | 33.94645 | -118.42601 | 131 ft | 15 kts | 82° |
| 2026-04-20 21:29 | 33.94659 | -118.42469 | 128 ft | 18 kts | 83° |
| 2026-04-20 21:29 | 33.94675 | -118.42304 | 126 ft | 19 kts | 82° |
| 2026-04-20 21:29 | 33.94693 | -118.42148 | 127 ft | 20 kts | 82° |
| 2026-04-20 21:30 | 33.94708 | -118.42007 | 131 ft | 15 kts | 83° |
| 2026-04-20 21:30 | 33.94720 | -118.41878 | 128 ft | 16 kts | 83° |
| 2026-04-20 21:30 | 33.94733 | -118.41743 | 126 ft | 15 kts | 83° |
| 2026-04-20 21:30 | 33.94742 | -118.41646 | 131 ft | 11 kts | 83° |
| 2026-04-20 21:31 | 33.94753 | -118.41554 | 127 ft | 11 kts | 81° |
| 2026-04-20 21:31 | 33.94764 | -118.41457 | 127 ft | 11 kts | 82° |
| 2026-04-20 21:31 | 33.94784 | -118.41375 | 130 ft | 10 kts | 71° |
| 2026-04-20 21:31 | 33.94791 | -118.41336 | 126 ft | 2 kts | 89° |
| 2026-04-20 21:32 | 33.94784 | -118.41313 | 127 ft | 2 kts | 131° |
| 2026-04-20 21:32 | 33.94752 | -118.41293 | 127 ft | 6 kts | 172° |
| 2026-04-20 21:32 | 33.94712 | -118.41287 | 127 ft | 6 kts | 173° |
| 2026-04-20 21:32 | 33.94650 | -118.41278 | 128 ft | 9 kts | 174° |
| 2026-04-20 21:33 | 33.94596 | -118.41271 | 128 ft | 8 kts | 174° |
| 2026-04-20 21:33 | 33.94504 | -118.41259 | 128 ft | 14 kts | 173° |
| 2026-04-20 21:33 | 33.94400 | -118.41243 | 128 ft | 18 kts | 172° |
| 2026-04-20 21:33 | 33.94288 | -118.41225 | 126 ft | 14 kts | 172° |
| 2026-04-20 21:34 | 33.94204 | -118.41211 | 128 ft | 10 kts | 172° |
| 2026-04-20 21:34 | 33.94143 | -118.41202 | 128 ft | 7 kts | 175° |
| 2026-04-20 21:34 | 33.94104 | -118.41194 | 128 ft | 5 kts | 148° |
| 2026-04-20 21:34 | 33.94089 | -118.41171 | 125 ft | 1 kts | 98° |
| 2026-04-20 21:35 | 33.94091 | -118.41144 | 125 ft | 4 kts | 81° |
| 2026-04-20 21:35 | 33.94096 | -118.41115 | 126 ft | 3 kts | 80° |
| 2026-04-20 21:35 | 33.94099 | -118.41094 | 126 ft | 2 kts | 82° |
| 2026-04-20 21:35 | 33.94099 | -118.41089 | 126 ft | 0 kts | 82° |